createdAt,value
2019-06-10T00:00:16.486Z,2.87
2019-06-10T00:02:50.653Z,3.27
2019-06-10T00:05:21.588Z,2.83
2019-06-10T00:07:52.497Z,3.27
2019-06-10T00:10:23.577Z,2.52
2019-06-10T00:12:55.472Z,3.15
2019-06-10T00:15:27.402Z,2.55
2019-06-10T00:18:20.886Z,2.70
2019-06-10T00:20:30.783Z,2.80
2019-06-10T00:23:02.533Z,3.83
2019-06-10T00:25:33.720Z,2.87
2019-06-10T00:28:05.811Z,3.00
2019-06-10T00:30:36.937Z,2.80
2019-06-10T00:33:08.062Z,3.02
2019-06-10T00:35:41.193Z,3.17
2019-06-10T00:38:14.411Z,3.20
2019-06-10T00:40:45.621Z,2.33
2019-06-10T00:43:16.379Z,2.75
2019-06-10T00:45:47.075Z,2.50
2019-06-10T00:48:28.307Z,2.75
2019-06-10T00:50:51.771Z,2.55
2019-06-10T00:53:22.667Z,3.05
2019-06-10T00:55:53.349Z,2.85
2019-06-10T00:58:23.795Z,3.10
2019-06-10T01:00:54.204Z,3.02
2019-06-10T01:03:25.003Z,2.90
2019-06-10T01:05:55.597Z,2.72
2019-06-10T01:08:26.472Z,3.10
2019-06-10T01:10:57.390Z,2.83
2019-06-10T01:13:27.904Z,3.22
2019-06-10T01:15:58.306Z,3.02
2019-06-10T01:18:35.671Z,2.92
2019-06-10T01:21:01.954Z,2.77
2019-06-10T01:23:32.958Z,3.72
2019-06-10T01:26:03.606Z,3.67
2019-06-10T01:28:34.124Z,3.12
2019-06-10T01:31:08.510Z,3.15
2019-06-10T01:33:37.200Z,3.72
2019-06-10T01:36:07.791Z,3.77
2019-06-10T01:38:40.810Z,3.55
2019-06-10T01:41:12.417Z,3.12
2019-06-10T01:43:44.114Z,3.92
2019-06-10T01:46:16.280Z,4.12
2019-06-10T01:48:48.559Z,4.20
2019-06-10T01:51:21.324Z,4.25
2019-06-10T01:53:51.744Z,4.17
2019-06-10T01:56:22.108Z,3.95
2019-06-10T01:58:53.513Z,5.30
2019-06-10T02:01:46.316Z,4.87
2019-06-10T02:04:18.120Z,5.72
2019-06-10T02:06:51.134Z,6.05
2019-06-10T02:09:23.166Z,4.85
2019-06-10T02:11:53.815Z,5.67
2019-06-10T02:14:24.668Z,5.50
2019-06-10T02:16:55.629Z,5.28
2019-06-10T02:19:26.329Z,5.37
2019-06-10T02:21:56.849Z,6.58
2019-06-10T02:24:27.286Z,6.78
2019-06-10T02:26:57.800Z,5.37
2019-06-10T02:29:30.624Z,6.85
2019-06-10T02:32:04.492Z,5.75
2019-06-10T02:34:34.109Z,6.28
2019-06-10T02:37:05.119Z,6.35
2019-06-10T02:39:39.070Z,6.65
2019-06-10T02:42:17.271Z,6.70
2019-06-10T02:44:46.073Z,6.75
2019-06-10T02:47:20.382Z,6.75
2019-06-10T02:49:59.113Z,7.37
2019-06-10T02:52:29.298Z,8.28
2019-06-10T02:54:53.914Z,6.85
2019-06-10T02:57:30.415Z,6.95
2019-06-10T02:59:56.472Z,7.92
2019-06-10T03:02:31.499Z,6.70
2019-06-10T03:05:00.356Z,6.92
2019-06-10T03:07:35.265Z,8.95
2019-06-10T03:10:04.756Z,7.42
2019-06-10T03:12:35.592Z,7.53
2019-06-10T03:15:06.578Z,9.23
2019-06-10T03:17:38.282Z,8.53
2019-06-10T03:20:09.183Z,8.40
2019-06-10T03:22:42.137Z,7.25
2019-06-10T03:25:13.113Z,9.35
2019-06-10T03:27:43.806Z,9.08
2019-06-10T03:30:20.574Z,9.55
2019-06-10T03:32:47.645Z,8.60
2019-06-10T03:35:19.282Z,9.35
2019-06-10T03:37:52.786Z,10.93
2019-06-10T03:40:24.964Z,9.65
2019-06-10T03:42:55.661Z,10.88
2019-06-10T03:45:28.384Z,9.83
2019-06-10T03:48:00.538Z,11.28
2019-06-10T03:50:32.462Z,10.15
2019-06-10T03:53:05.410Z,9.40
2019-06-10T03:55:35.979Z,9.73
2019-06-10T03:58:06.841Z,7.78
2019-06-10T04:00:37.645Z,7.53
2019-06-10T04:03:08.339Z,7.72
2019-06-10T04:05:38.958Z,6.78
2019-06-10T04:08:09.857Z,6.58
2019-06-10T04:10:42.887Z,7.40
2019-06-10T04:13:13.301Z,7.10
2019-06-10T04:15:44.122Z,7.95
2019-06-10T04:18:14.592Z,7.50
2019-06-10T04:20:45.067Z,7.15
2019-06-10T04:23:15.849Z,6.17
2019-06-10T04:25:46.458Z,7.33
2019-06-10T04:28:19.786Z,7.25
2019-06-10T04:30:53.071Z,6.50
2019-06-10T04:33:27.650Z,8.03
2019-06-10T04:35:58.597Z,5.70
2019-06-10T04:38:29.222Z,5.72
2019-06-10T04:41:00.056Z,7.42
2019-06-10T04:43:32.573Z,6.03
2019-06-10T04:46:04.594Z,7.15
2019-06-10T04:48:35.409Z,5.78
2019-06-10T04:51:06.098Z,6.25
2019-06-10T04:53:40.248Z,7.45
2019-06-10T04:56:12.101Z,5.05
2019-06-10T04:58:43.330Z,5.72
2019-06-10T05:01:14.199Z,5.08
2019-06-10T05:03:44.758Z,5.85
2019-06-10T05:06:16.229Z,6.72
2019-06-10T05:08:46.827Z,7.40
2019-06-10T05:11:17.398Z,7.37
2019-06-10T05:13:49.044Z,6.17
2019-06-10T05:16:19.684Z,7.30
2019-06-10T05:18:52.402Z,8.03
2019-06-10T05:21:25.017Z,7.17
2019-06-10T05:23:55.105Z,6.50
2019-06-10T05:26:27.203Z,6.97
2019-06-10T05:28:58.078Z,8.53
2019-06-10T05:31:31.014Z,6.92
2019-06-10T05:34:02.351Z,7.45
2019-06-10T05:36:34.976Z,5.10
2019-06-10T05:39:07.603Z,7.45
2019-06-10T05:41:38.569Z,5.72
2019-06-10T05:44:09.477Z,5.50
2019-06-10T05:46:39.987Z,5.20
2019-06-10T05:49:12.482Z,5.50
2019-06-10T05:51:43.498Z,6.42
2019-06-10T05:54:14.501Z,6.53
2019-06-10T05:56:45.263Z,6.45
2019-06-10T05:59:25.868Z,6.72
2019-06-10T06:01:57.173Z,5.78
2019-06-10T06:04:28.073Z,6.60
2019-06-10T06:06:58.898Z,5.28
2019-06-10T06:09:32.327Z,5.40
2019-06-10T06:12:02.590Z,5.70
2019-06-10T06:14:34.723Z,6.70
2019-06-10T06:17:05.879Z,6.37
2019-06-10T06:19:38.456Z,5.67
2019-06-10T06:22:09.944Z,6.15
2019-06-10T06:24:42.642Z,6.92
2019-06-10T06:27:13.239Z,7.40
2019-06-10T06:29:43.807Z,7.15
2019-06-10T06:32:14.365Z,7.28
2019-06-10T06:34:44.936Z,7.87
2019-06-10T06:37:15.466Z,7.55
2019-06-10T06:39:46.370Z,7.33
2019-06-10T06:42:16.871Z,6.97
2019-06-10T06:44:47.298Z,7.55
2019-06-10T06:47:17.805Z,8.33
2019-06-10T06:49:48.928Z,6.55
2019-06-10T06:52:35.367Z,7.92
2019-06-10T06:54:53.057Z,5.33
2019-06-10T06:57:23.821Z,5.33
2019-06-10T06:59:54.432Z,5.45
2019-06-10T07:02:25.635Z,6.03
2019-06-10T07:04:56.115Z,6.20
2019-06-10T07:07:27.344Z,5.92
2019-06-10T07:10:00.450Z,5.90
2019-06-10T07:12:33.749Z,5.97
2019-06-10T07:15:06.254Z,6.87
2019-06-10T07:17:39.038Z,6.47
2019-06-10T07:20:12.519Z,6.10
2019-06-10T07:22:46.262Z,6.42
2019-06-10T07:25:15.660Z,7.80
2019-06-10T07:27:46.962Z,7.15
2019-06-10T07:30:17.902Z,8.43
2019-06-10T07:32:49.264Z,6.65
2019-06-10T07:35:22.053Z,6.17
2019-06-10T07:37:53.327Z,5.45
2019-06-10T07:40:24.035Z,7.10
2019-06-10T07:42:54.733Z,8.55
2019-06-10T07:45:25.235Z,8.18
2019-06-10T07:47:55.924Z,6.72
2019-06-10T07:50:26.673Z,7.55
2019-06-10T07:52:57.158Z,6.90
2019-06-10T07:55:28.882Z,8.33
2019-06-10T07:57:59.572Z,8.30
2019-06-10T08:00:30.414Z,8.18
2019-06-10T08:03:02.442Z,8.75
2019-06-10T08:05:34.243Z,9.03
2019-06-10T08:08:05.287Z,6.83
2019-06-10T08:10:37.134Z,7.70
2019-06-10T08:13:07.861Z,8.80
2019-06-10T08:15:39.737Z,7.62
2019-06-10T08:18:12.980Z,8.70
2019-06-10T08:20:47.636Z,7.60
2019-06-10T08:23:20.429Z,8.78
2019-06-10T08:25:56.558Z,7.20
2019-06-10T08:28:24.450Z,7.25
2019-06-10T08:30:55.857Z,6.42
2019-06-10T08:33:26.865Z,7.37
2019-06-10T08:36:00.621Z,6.83
2019-06-10T08:38:32.706Z,7.67
2019-06-10T08:41:03.558Z,7.80
2019-06-10T08:43:34.542Z,10.28
2019-06-10T08:46:05.376Z,11.57
2019-06-10T08:48:37.237Z,8.20
2019-06-10T08:51:08.256Z,11.12
2019-06-10T08:53:39.473Z,11.00
2019-06-10T08:56:12.812Z,10.43
2019-06-10T08:58:46.350Z,6.28
2019-06-10T09:01:15.408Z,8.65
2019-06-10T09:03:48.834Z,6.53
2019-06-10T09:06:18.434Z,3.65
2019-06-10T09:08:51.285Z,4.65
2019-06-10T09:11:24.019Z,5.10
2019-06-10T09:13:54.801Z,5.22
2019-06-10T09:16:25.282Z,5.85
2019-06-10T09:18:56.093Z,5.50
2019-06-10T09:21:27.956Z,6.42
2019-06-10T09:24:03.497Z,8.65
2019-06-10T09:26:33.889Z,8.40
2019-06-10T09:29:05.471Z,5.10
2019-06-10T09:31:36.032Z,6.85
2019-06-10T09:34:07.568Z,3.70
2019-06-10T09:36:38.128Z,5.22
2019-06-10T09:39:08.932Z,3.08
2019-06-10T09:41:43.229Z,5.05
2019-06-10T09:44:12.908Z,5.83
2019-06-10T09:46:47.808Z,6.15
2019-06-10T09:49:19.320Z,5.30
2019-06-10T09:51:54.830Z,5.87
2019-06-10T09:54:23.340Z,4.72
2019-06-10T09:56:54.658Z,3.87
2019-06-10T09:59:25.457Z,4.97
2019-06-10T10:02:00.008Z,4.10
2019-06-10T10:04:28.562Z,4.35
2019-06-10T10:06:59.365Z,4.75
2019-06-10T10:09:33.568Z,4.47
2019-06-10T10:12:05.905Z,3.42
2019-06-10T10:14:38.108Z,4.78
2019-06-10T10:17:09.348Z,3.95
2019-06-10T10:19:40.085Z,3.58
2019-06-10T10:22:13.954Z,4.33
2019-06-10T10:24:44.576Z,4.30
2019-06-10T10:27:16.509Z,3.98
2019-06-10T10:29:50.309Z,6.00
2019-06-10T10:32:22.229Z,6.03
2019-06-10T10:34:56.273Z,6.97
2019-06-10T10:37:25.562Z,5.10
2019-06-10T10:39:57.286Z,5.08
2019-06-10T10:42:41.623Z,3.90
2019-06-10T10:45:02.672Z,4.20
2019-06-10T10:47:33.950Z,5.03
2019-06-10T10:50:05.013Z,3.12
2019-06-10T10:52:35.678Z,3.52
2019-06-10T10:55:08.868Z,3.62
2019-06-10T10:57:39.626Z,4.15
2019-06-10T11:00:12.498Z,4.47
2019-06-10T11:02:44.955Z,2.95
2019-06-10T11:05:33.774Z,2.80
2019-06-10T11:08:06.053Z,1.80
2019-06-10T11:10:37.972Z,3.95
2019-06-10T11:13:12.129Z,3.45
2019-06-10T11:15:45.781Z,2.83
2019-06-10T11:18:16.622Z,3.87
2019-06-10T11:20:47.408Z,3.25
2019-06-10T11:23:17.950Z,2.25
2019-06-10T11:25:53.191Z,2.92
2019-06-10T11:28:22.901Z,3.12
2019-06-10T11:30:56.876Z,2.90
2019-06-10T11:33:29.325Z,3.25
2019-06-10T11:36:02.657Z,3.67
2019-06-10T11:38:33.254Z,2.67
2019-06-10T11:41:04.357Z,2.72
2019-06-10T11:43:35.765Z,2.98
2019-06-10T11:46:07.626Z,3.60
2019-06-10T11:48:38.971Z,3.10
2019-06-10T11:51:12.725Z,3.15
2019-06-10T11:53:44.052Z,2.95
2019-06-10T11:56:14.508Z,2.62
2019-06-10T11:58:44.962Z,3.22
2019-06-10T12:01:16.020Z,2.45
2019-06-10T12:03:46.806Z,3.83
2019-06-10T12:06:18.672Z,4.05
2019-06-10T12:08:49.157Z,3.10
2019-06-10T12:11:22.836Z,3.85
2019-06-10T12:13:57.749Z,4.17
2019-06-10T12:18:58.629Z,1.85
2019-06-10T12:21:32.884Z,3.22
2019-06-10T12:24:02.910Z,3.35
2019-06-10T12:26:33.683Z,2.58
2019-06-10T12:29:05.828Z,3.30
2019-06-10T12:31:37.117Z,3.75
2019-06-10T12:34:08.351Z,4.33
2019-06-10T12:36:41.861Z,4.67
2019-06-10T12:39:15.680Z,3.30
2019-06-10T12:41:45.556Z,4.17
2019-06-10T12:44:16.789Z,3.75
2019-06-10T12:46:47.822Z,4.65
2019-06-10T12:49:19.007Z,3.30
2019-06-10T12:51:52.890Z,3.60
2019-06-10T12:54:23.326Z,4.80
2019-06-10T12:56:55.290Z,3.58
2019-06-10T12:59:27.157Z,2.83
2019-06-10T13:02:01.737Z,3.58
2019-06-10T13:04:31.444Z,4.20
2019-06-10T13:07:05.726Z,2.42
2019-06-10T13:09:38.475Z,2.72
2019-06-10T13:12:09.370Z,3.22
2019-06-10T13:14:42.916Z,2.90
2019-06-10T13:17:13.173Z,3.75
2019-06-10T13:19:44.202Z,3.67
2019-06-10T13:22:16.112Z,3.72
2019-06-10T13:24:47.297Z,3.60
2019-06-10T13:27:18.206Z,3.70
2019-06-10T13:29:49.153Z,4.30
2019-06-10T13:32:19.858Z,2.77
2019-06-10T13:34:52.642Z,2.22
2019-06-10T13:37:22.914Z,2.30
2019-06-10T13:39:53.433Z,1.60
2019-06-10T13:42:24.339Z,3.50
2019-06-10T13:44:54.999Z,1.82
2019-06-10T13:47:26.200Z,2.12
2019-06-10T13:49:56.905Z,1.90
2019-06-10T13:52:27.388Z,2.17
2019-06-10T13:54:58.690Z,2.92
2019-06-10T13:57:29.222Z,2.30
2019-06-10T14:00:02.740Z,2.90
2019-06-10T14:02:32.408Z,4.03
2019-06-10T14:05:08.285Z,2.52
2019-06-10T14:07:35.197Z,3.75
2019-06-10T14:10:10.829Z,2.92
2019-06-10T14:12:39.039Z,4.87
2019-06-10T14:15:12.185Z,1.42
2019-06-10T14:17:45.332Z,2.95
2019-06-10T14:20:16.286Z,3.30
2019-06-10T14:22:46.683Z,3.37
2019-06-10T14:25:18.515Z,3.60
2019-06-10T14:27:49.123Z,1.92
2019-06-10T14:30:20.017Z,4.53
2019-06-10T14:32:52.785Z,3.83
2019-06-10T14:35:22.981Z,3.52
2019-06-10T14:37:54.024Z,4.33
2019-06-10T14:40:25.725Z,3.40
2019-06-10T14:42:56.428Z,3.12
2019-06-10T14:45:26.977Z,4.12
2019-06-10T14:47:58.809Z,5.08
2019-06-10T14:50:32.413Z,4.45
2019-06-10T14:53:03.092Z,5.12
2019-06-10T14:55:34.140Z,5.03
2019-06-10T14:58:05.387Z,4.65
2019-06-10T15:00:37.388Z,4.80
2019-06-10T15:03:09.461Z,4.37
2019-06-10T15:05:43.158Z,6.00
2019-06-10T15:08:15.431Z,4.62
2019-06-10T15:10:45.397Z,5.83
2019-06-10T15:13:16.170Z,6.53
2019-06-10T15:15:47.609Z,5.40
2019-06-10T15:18:20.615Z,7.28
2019-06-10T15:20:53.452Z,7.25
2019-06-10T15:23:24.256Z,7.58
2019-06-10T15:25:57.064Z,6.83
2019-06-10T15:28:27.350Z,7.00
2019-06-10T15:30:57.918Z,6.65
2019-06-10T15:33:28.334Z,7.42
2019-06-10T15:35:59.069Z,8.25
2019-06-10T15:38:32.534Z,9.00
2019-06-10T15:41:02.536Z,8.00
2019-06-10T15:43:33.267Z,7.35
2019-06-10T15:46:03.942Z,7.35
2019-06-10T15:48:34.772Z,6.67
2019-06-10T15:51:05.480Z,8.15
2019-06-10T15:53:35.922Z,9.03
2019-06-10T15:56:16.896Z,7.28
2019-06-10T15:58:39.324Z,8.25
2019-06-10T16:01:12.046Z,8.28
2019-06-10T16:03:42.588Z,7.15
2019-06-10T16:06:13.894Z,8.08
2019-06-10T16:08:45.715Z,8.58
2019-06-10T16:11:18.310Z,9.40
2019-06-10T16:13:48.490Z,9.03
2019-06-10T16:16:19.318Z,11.55
2019-06-10T16:18:50.020Z,9.30
2019-06-10T16:21:21.912Z,8.58
2019-06-10T16:23:53.297Z,7.92
2019-06-10T16:26:26.780Z,9.15
2019-06-10T16:28:56.748Z,9.33
2019-06-10T16:31:27.753Z,9.95
2019-06-10T16:33:58.653Z,9.48
2019-06-10T16:36:32.129Z,10.72
2019-06-10T16:39:03.441Z,10.38
2019-06-10T16:41:35.669Z,10.38
2019-06-10T16:44:06.326Z,11.53
2019-06-10T16:46:37.048Z,6.70
2019-06-10T16:49:07.776Z,9.93
2019-06-10T16:51:38.419Z,12.53
2019-06-10T16:54:09.228Z,11.90
2019-06-10T16:56:39.887Z,12.65
2019-06-10T16:59:12.316Z,15.08
2019-06-10T17:01:43.954Z,15.40
2019-06-10T17:04:14.845Z,11.05
2019-06-10T17:06:45.461Z,10.13
2019-06-10T17:09:16.408Z,15.65
2019-06-10T17:11:47.105Z,13.10
2019-06-10T17:14:20.077Z,14.10
2019-06-10T17:16:52.803Z,12.85
2019-06-10T17:19:26.692Z,17.12
2019-06-10T17:21:55.769Z,16.48
2019-06-10T17:24:27.669Z,14.83
2019-06-10T17:26:58.561Z,16.20
2019-06-10T17:29:30.616Z,14.15
2019-06-10T17:32:02.811Z,13.15
2019-06-10T17:34:34.165Z,14.83
2019-06-10T17:37:05.407Z,14.35
2019-06-10T17:39:36.093Z,12.80
2019-06-10T17:42:17.471Z,11.10
2019-06-10T17:44:47.996Z,14.70
2019-06-10T17:47:18.890Z,15.95
2019-06-10T17:49:50.058Z,13.50
2019-06-10T17:52:21.955Z,13.48
2019-06-10T17:54:54.362Z,13.10
2019-06-10T17:57:27.086Z,17.92
2019-06-10T17:59:59.455Z,20.27
2019-06-10T18:02:31.201Z,14.75
2019-06-10T18:05:03.217Z,15.80
2019-06-10T18:07:35.757Z,14.00
2019-06-10T18:10:07.182Z,17.77
2019-06-10T18:12:37.728Z,21.25
2019-06-10T18:15:08.594Z,16.27
2019-06-10T18:17:39.528Z,5.50
2019-06-10T18:20:13.340Z,9.05
2019-06-10T18:22:42.584Z,10.08
2019-06-10T18:25:13.382Z,11.48
2019-06-10T18:27:45.424Z,10.48
2019-06-10T18:30:16.508Z,10.48
2019-06-10T18:32:47.171Z,10.25
2019-06-10T18:35:18.034Z,11.70
2019-06-10T18:37:48.764Z,10.10
2019-06-10T18:40:20.442Z,10.58
2019-06-10T18:42:52.289Z,12.18
2019-06-10T18:45:23.302Z,12.13
2019-06-10T18:47:54.076Z,11.70
2019-06-10T18:50:26.231Z,12.90
2019-06-10T18:53:00.360Z,14.00
2019-06-10T18:55:34.172Z,16.02
2019-06-10T18:58:03.767Z,13.43
2019-06-10T19:00:53.496Z,12.55
2019-06-10T19:03:12.475Z,12.00
2019-06-10T19:05:39.464Z,10.35
2019-06-10T19:08:10.311Z,9.65
2019-06-10T19:10:43.182Z,11.12
2019-06-10T19:13:13.492Z,13.25
2019-06-10T19:15:44.857Z,13.75
2019-06-10T19:18:15.681Z,16.52
2019-06-10T19:20:46.328Z,14.30
2019-06-10T19:23:17.389Z,13.70
2019-06-10T19:25:48.300Z,11.95
2019-06-10T19:28:19.124Z,7.80
2019-06-10T19:30:49.697Z,11.50
2019-06-10T19:33:23.230Z,12.15
2019-06-10T19:35:53.391Z,11.22
2019-06-10T19:38:23.989Z,10.50
2019-06-10T19:40:55.001Z,9.75
2019-06-10T19:43:25.651Z,12.70
2019-06-10T19:45:56.160Z,10.10
2019-06-10T19:48:26.867Z,11.08
2019-06-10T19:50:57.450Z,5.20
2019-06-10T19:53:27.950Z,10.82
2019-06-10T19:55:58.509Z,8.90
2019-06-10T19:58:32.350Z,10.13
2019-06-10T20:01:05.809Z,5.87
2019-06-10T20:03:37.658Z,6.45
2019-06-10T20:06:08.387Z,2.50
2019-06-10T20:08:40.026Z,10.63
2019-06-10T20:11:12.380Z,9.93
2019-06-10T20:13:43.717Z,9.83
2019-06-10T20:16:16.771Z,7.35
2019-06-10T20:18:49.682Z,8.53
2019-06-10T20:21:22.568Z,9.40
2019-06-10T20:23:52.991Z,5.95
2019-06-10T20:26:23.701Z,9.33
2019-06-10T20:28:55.431Z,5.25
2019-06-10T20:31:26.165Z,4.53
2019-06-10T20:33:56.974Z,4.33
2019-06-10T20:36:27.541Z,6.12
2019-06-10T20:38:58.078Z,4.42
2019-06-10T20:41:28.793Z,11.40
2019-06-10T20:43:59.352Z,3.25
2019-06-10T20:46:32.248Z,6.70
2019-06-10T20:49:03.333Z,9.80
2019-06-10T20:51:48.687Z,5.95
2019-06-10T20:54:07.057Z,7.85
2019-06-10T20:56:38.614Z,11.80
2019-06-10T20:59:09.164Z,7.15
2019-06-10T21:01:43.252Z,14.68
2019-06-10T21:04:13.263Z,15.03
2019-06-10T21:06:45.958Z,14.47
2019-06-10T21:09:22.479Z,10.58
2019-06-10T21:11:54.365Z,8.68
2019-06-10T21:14:25.417Z,5.37
2019-06-10T21:16:56.171Z,6.67
2019-06-10T21:19:27.413Z,8.08
2019-06-10T21:21:57.970Z,8.13
2019-06-10T21:24:28.689Z,6.95
2019-06-10T21:26:59.429Z,5.70
2019-06-10T21:29:32.180Z,4.05
2019-06-10T21:32:03.747Z,2.52
2019-06-10T21:34:34.346Z,2.92
2019-06-10T21:37:04.865Z,3.77
2019-06-10T21:39:35.275Z,5.30
2019-06-10T21:42:05.789Z,7.95
2019-06-10T21:44:36.412Z,9.10
2019-06-10T21:47:07.205Z,3.62
2019-06-10T21:49:37.790Z,3.12
2019-06-10T21:52:08.528Z,4.25
2019-06-10T21:54:39.144Z,4.65
2019-06-10T21:57:09.701Z,1.55
2019-06-10T21:59:43.900Z,2.60
2019-06-10T22:02:15.206Z,1.32
2019-06-10T22:04:46.674Z,3.98
2019-06-10T22:07:18.385Z,2.12
2019-06-10T22:09:53.140Z,1.32
2019-06-10T22:12:23.097Z,2.17
2019-06-10T22:14:54.664Z,2.30
2019-06-10T22:17:25.318Z,2.52
2019-06-10T22:19:56.454Z,3.02
2019-06-10T22:22:26.992Z,3.12
2019-06-10T22:24:57.699Z,2.85
2019-06-10T22:27:28.448Z,2.50
2019-06-10T22:29:59.126Z,5.15
2019-06-10T22:32:32.235Z,2.50
2019-06-10T22:35:02.992Z,2.10
2019-06-10T22:37:33.952Z,1.82
2019-06-10T22:40:04.584Z,1.85
2019-06-10T22:42:35.179Z,2.20
2019-06-10T22:45:06.041Z,2.22
2019-06-10T22:47:36.521Z,2.40
2019-06-10T22:50:08.169Z,1.67
2019-06-10T22:52:38.786Z,1.70
2019-06-10T22:55:09.677Z,1.87
2019-06-10T22:57:43.976Z,1.10
2019-06-10T23:00:14.141Z,1.30
2019-06-10T23:02:44.611Z,1.37
2019-06-10T23:05:17.422Z,2.33
2019-06-10T23:07:48.250Z,2.05
2019-06-10T23:10:18.906Z,1.02
2019-06-10T23:12:50.573Z,1.05
2019-06-10T23:15:23.513Z,1.45
2019-06-10T23:17:56.745Z,1.12
2019-06-10T23:20:27.262Z,1.00
2019-06-10T23:22:59.152Z,1.20
2019-06-10T23:25:32.511Z,1.27
2019-06-10T23:28:02.259Z,1.30
2019-06-10T23:30:33.137Z,1.80
2019-06-10T23:33:03.917Z,2.37
2019-06-10T23:35:34.454Z,3.22
2019-06-10T23:38:05.406Z,3.75
2019-06-10T23:40:37.728Z,4.65
2019-06-10T23:43:08.148Z,2.92
2019-06-10T23:45:38.624Z,2.67
2019-06-10T23:48:09.025Z,2.65
2019-06-10T23:50:39.886Z,2.75
2019-06-10T23:53:13.244Z,3.67
2019-06-10T23:55:43.012Z,2.92
2019-06-10T23:58:13.744Z,4.92
